Terminal Aerodrome Forecast
Issued by NWS

Home | Current Version | Previous Version | Text Only | Print | Product List | Glossary On
Versions: 1 2 3 4 5 6 7 8 9 10 11 12 13 14 15
733
FTAK31 PAJN 261123
TAFAWG
TAF
PAWG 261123Z 2612/2712 VRB03KT 6SM -SHRA BR SCT015 OVC025
      TEMPO 2612/2616 2SM -SHRA BR BKN015 OVC025
     FM261700 05004KT 6SM -SHRA BR SCT007 SCT015 OVC030
     FM262000 28005KT P6SM VCSH SCT015 BKN050 BKN070
     FM270000 13005KT P6SM -SHRA SCT025 BKN040 OVC050
     FM270700 13005KT P6SM -SHRA BKN025 OVC040
      AMD LTD TO CLD VIS AND WIND 2612/2615=

USA.gov is the U.S. government's official web portal to all federal, state and local government web resources and services.